Time;durP1;ratioP1;P1;durP2;ratioP2;P2;SDS_P1;SDS_P2;PMS_P1;PMS_P2;Temp;Humidity;BMP_temperature;BMP_pressure;BME280_temperature;BME280_humidity;BME280_pressure;Samples;Min_cycle;Max_cycle;Signal;HPM_P1;HPM_P2
2023/12/21 00:00:15;;;;;;;14.65;1.98;;;;;;;;;;4133953;28;20410;-80
2023/12/21 00:02:16;;;;;;;16.65;2.40;;;;;;;;;;4124104;28;20043;-80
2023/12/21 00:04:17;;;;;;;27.13;2.35;;;;;;;;;;4118313;28;20393;-80
2023/12/21 00:06:18;;;;;;;20.17;2.72;;;;;;;;;;4118495;28;20047;-80
2023/12/21 00:08:19;;;;;;;12.98;2.28;;;;;;;;;;4117198;28;20169;-80
2023/12/21 00:10:20;;;;;;;20.02;2.58;;;;;;;;;;4117918;28;20074;-80
2023/12/21 00:12:21;;;;;;;18.38;2.28;;;;;;;;;;4118215;28;20054;-80
2023/12/21 00:14:23;;;;;;;17.08;2.60;;;;;;;;;;4129414;28;20051;-80
2023/12/21 00:16:24;;;;;;;13.75;2.15;;;;;;;;;;4134057;28;20491;-80
2023/12/21 00:18:25;;;;;;;16.95;2.60;;;;;;;;;;4147851;28;20435;-80
2023/12/21 00:20:27;;;;;;;22.52;2.95;;;;;;;;;;4126503;28;20042;-80
2023/12/21 00:22:29;;;;;;;14.80;2.75;;;;;;;;;;4117908;28;20043;-80
2023/12/21 00:24:30;;;;;;;22.85;2.78;;;;;;;;;;4117535;28;20400;-81
2023/12/21 00:26:31;;;;;;;14.20;2.40;;;;;;;;;;4117921;28;20046;-81
2023/12/21 00:28:32;;;;;;;17.98;1.65;;;;;;;;;;4116657;28;20583;-81
2023/12/21 00:30:33;;;;;;;15.30;2.08;;;;;;;;;;4118230;28;20089;-80
2023/12/21 00:32:34;;;;;;;11.20;2.83;;;;;;;;;;4118102;28;20400;-81
2023/12/21 00:34:35;;;;;;;15.15;1.77;;;;;;;;;;4117380;28;20046;-80
2023/12/21 00:36:36;;;;;;;22.85;3.08;;;;;;;;;;4117770;28;20126;-81
2023/12/21 00:38:37;;;;;;;12.35;2.15;;;;;;;;;;4118064;28;20439;-80
2023/12/21 00:40:38;;;;;;;18.45;2.40;;;;;;;;;;4119109;28;20050;-80
2023/12/21 00:42:41;;;;;;;10.55;2.40;;;;;;;;;;4133637;28;20049;-80
2023/12/21 00:44:42;;;;;;;15.15;3.00;;;;;;;;;;4133607;28;20046;-80
2023/12/21 00:46:43;;;;;;;13.80;2.03;;;;;;;;;;4119155;28;20053;-81
2023/12/21 00:48:47;;;;;;;15.93;3.50;;;;;;;;;;4116399;28;20182;-81
2023/12/21 00:50:48;;;;;;;12.80;2.08;;;;;;;;;;4117372;28;20076;-80
2023/12/21 00:52:49;;;;;;;12.23;1.90;;;;;;;;;;4117482;28;20559;-80
2023/12/21 00:54:50;;;;;;;12.18;1.92;;;;;;;;;;4117595;28;20035;-80
2023/12/21 00:56:52;;;;;;;12.18;2.13;;;;;;;;;;4116896;28;20055;-80
2023/12/21 00:58:53;;;;;;;11.40;2.53;;;;;;;;;;4117511;28;20385;-80
2023/12/21 01:00:56;;;;;;;13.70;1.70;;;;;;;;;;4117307;28;20555;-80
2023/12/21 01:02:57;;;;;;;11.25;2.40;;;;;;;;;;4117311;28;20042;-80
2023/12/21 01:04:58;;;;;;;13.70;2.80;;;;;;;;;;4116767;28;20050;-81
2023/12/21 01:07:01;;;;;;;14.95;3.28;;;;;;;;;;4116210;28;20074;-80
2023/12/21 01:09:02;;;;;;;13.95;3.65;;;;;;;;;;4115066;28;20058;-81
2023/12/21 01:11:03;;;;;;;20.58;2.80;;;;;;;;;;4116202;28;20118;-81
2023/12/21 01:13:06;;;;;;;13.40;2.10;;;;;;;;;;4116571;28;20384;-81
2023/12/21 01:15:07;;;;;;;12.48;1.60;;;;;;;;;;4116488;28;20078;-81
2023/12/21 01:17:09;;;;;;;15.27;2.40;;;;;;;;;;4115921;28;20069;-81
2023/12/21 01:19:10;;;;;;;17.10;2.20;;;;;;;;;;4116578;28;20050;-81
2023/12/21 01:21:11;;;;;;;17.80;2.63;;;;;;;;;;4115437;28;20046;-80
2023/12/21 01:23:12;;;;;;;15.85;2.05;;;;;;;;;;4116501;28;20038;-81
2023/12/21 01:25:13;;;;;;;19.60;3.72;;;;;;;;;;4116864;28;20488;-81
2023/12/21 01:27:14;;;;;;;11.68;1.83;;;;;;;;;;4116857;28;20058;-81
2023/12/21 01:29:16;;;;;;;16.58;1.75;;;;;;;;;;4116284;28;20049;-81
2023/12/21 01:31:17;;;;;;;13.02;2.33;;;;;;;;;;4116965;28;20050;-81
2023/12/21 01:33:18;;;;;;;11.93;2.33;;;;;;;;;;4117312;28;20117;-81
2023/12/21 01:35:20;;;;;;;10.57;2.30;;;;;;;;;;4116435;28;20101;-81
2023/12/21 01:37:21;;;;;;;14.18;2.13;;;;;;;;;;4116630;28;20130;-81
2023/12/21 01:39:22;;;;;;;14.13;2.42;;;;;;;;;;4116763;28;20047;-80
2023/12/21 01:41:23;;;;;;;6.18;1.58;;;;;;;;;;4116914;28;20519;-81
2023/12/21 01:43:24;;;;;;;11.70;2.38;;;;;;;;;;4116173;28;20049;-81
2023/12/21 01:45:25;;;;;;;10.80;2.28;;;;;;;;;;4116526;28;20042;-81
2023/12/21 01:47:28;;;;;;;13.02;3.13;;;;;;;;;;4116939;28;20042;-81
2023/12/21 01:49:29;;;;;;;12.85;2.75;;;;;;;;;;4116991;28;20047;-81
2023/12/21 01:51:31;;;;;;;13.20;2.85;;;;;;;;;;4127003;28;20046;-81
2023/12/21 01:53:33;;;;;;;11.13;2.20;;;;;;;;;;4133156;28;20046;-81
2023/12/21 01:55:35;;;;;;;16.17;3.50;;;;;;;;;;4132486;28;20058;-80
2023/12/21 01:57:36;;;;;;;17.40;2.30;;;;;;;;;;4132951;28;20043;-80
2023/12/21 01:59:39;;;;;;;10.70;2.10;;;;;;;;;;4133010;28;20491;-81
2023/12/21 02:01:40;;;;;;;17.08;2.72;;;;;;;;;;4132578;28;20039;-80
2023/12/21 02:03:41;;;;;;;13.43;1.52;;;;;;;;;;4147390;28;20057;-80
2023/12/21 02:05:42;;;;;;;22.60;2.97;;;;;;;;;;4118240;28;20053;-80
2023/12/21 02:07:43;;;;;;;12.63;2.08;;;;;;;;;;4115322;28;20046;-80
2023/12/21 02:09:50;;;;;;;11.68;2.00;;;;;;;;;;4116200;28;20117;-80
2023/12/21 02:11:51;;;;;;;16.20;2.72;;;;;;;;;;4115989;28;20039;-80
2023/12/21 02:13:52;;;;;;;16.48;3.03;;;;;;;;;;4115681;28;20467;-80
2023/12/21 02:15:54;;;;;;;12.10;2.58;;;;;;;;;;4114196;28;20054;-80
2023/12/21 02:17:56;;;;;;;16.42;2.38;;;;;;;;;;4115940;28;20424;-80
2023/12/21 02:19:58;;;;;;;8.98;2.10;;;;;;;;;;4115416;28;20218;-80
2023/12/21 02:22:01;;;;;;;11.27;2.72;;;;;;;;;;4115532;28;20480;-80
2023/12/21 02:24:04;;;;;;;9.57;1.98;;;;;;;;;;4114661;28;20046;-80
2023/12/21 02:26:05;;;;;;;15.05;2.30;;;;;;;;;;4116380;28;20090;-80
2023/12/21 02:28:07;;;;;;;12.60;2.22;;;;;;;;;;4116789;28;20050;-80
2023/12/21 02:30:09;;;;;;;8.73;2.65;;;;;;;;;;4131882;28;20057;-80
2023/12/21 02:32:10;;;;;;;16.23;2.47;;;;;;;;;;4131972;28;20046;-80
2023/12/21 02:34:11;;;;;;;9.95;1.85;;;;;;;;;;4131201;28;20049;-80
2023/12/21 02:36:12;;;;;;;9.85;1.52;;;;;;;;;;4131920;28;20149;-81
2023/12/21 02:38:13;;;;;;;13.55;1.90;;;;;;;;;;4124048;28;20043;-80
2023/12/21 02:40:14;;;;;;;12.32;2.60;;;;;;;;;;4115760;28;20496;-80
2023/12/21 02:42:15;;;;;;;8.80;2.80;;;;;;;;;;4116706;28;20047;-80
2023/12/21 02:44:16;;;;;;;8.20;2.50;;;;;;;;;;4116797;28;20070;-80
2023/12/21 02:46:19;;;;;;;10.55;3.22;;;;;;;;;;4118793;28;20047;-80
2023/12/21 02:48:20;;;;;;;17.98;2.35;;;;;;;;;;4134690;28;20053;-80
2023/12/21 02:50:22;;;;;;;10.77;1.85;;;;;;;;;;4134995;28;20499;-80
2023/12/21 02:52:23;;;;;;;14.13;2.72;;;;;;;;;;4130753;28;20038;-80
2023/12/21 02:54:24;;;;;;;9.02;2.10;;;;;;;;;;4118442;28;20062;-80
2023/12/21 02:56:26;;;;;;;13.48;1.85;;;;;;;;;;4118440;28;20114;-80
2023/12/21 02:58:28;;;;;;;6.50;2.15;;;;;;;;;;4119129;28;20050;-80
2023/12/21 03:00:29;;;;;;;8.65;1.75;;;;;;;;;;4118739;28;20054;-79
2023/12/21 03:02:30;;;;;;;8.68;2.10;;;;;;;;;;4119067;28;20413;-80
2023/12/21 03:04:31;;;;;;;6.53;1.90;;;;;;;;;;4120135;28;20054;-80
2023/12/21 03:06:32;;;;;;;15.77;2.50;;;;;;;;;;4125249;28;20045;-80
2023/12/21 03:08:34;;;;;;;10.32;1.80;;;;;;;;;;4119789;28;20053;-79
2023/12/21 03:10:35;;;;;;;10.45;2.58;;;;;;;;;;4124053;28;20050;-80
2023/12/21 03:12:36;;;;;;;9.32;1.73;;;;;;;;;;4128352;28;20050;-80
2023/12/21 03:14:37;;;;;;;13.43;2.30;;;;;;;;;;4125787;28;20043;-80
2023/12/21 03:16:38;;;;;;;13.55;2.58;;;;;;;;;;4139427;28;20086;-80
2023/12/21 03:18:39;;;;;;;11.80;3.35;;;;;;;;;;4124076;28;20046;-80
2023/12/21 03:20:39;;;;;;;12.25;2.42;;;9.60;99.90;;;;;;4136984;28;20460;-80
2023/12/21 03:22:40;;;;;;;10.95;2.15;;;9.70;99.90;;;;;;4125391;28;20043;-80
2023/12/21 03:24:41;;;;;;;9.70;2.15;;;10.10;99.90;;;;;;4122512;28;20062;-80
2023/12/21 03:26:44;;;;;;;9.05;2.15;;;8.00;99.90;;;;;;4117105;28;20495;-80
2023/12/21 03:28:45;;;;;;;11.27;2.25;;;9.80;99.90;;;;;;4117907;28;20460;-80
2023/12/21 03:30:46;;;;;;;14.35;2.40;;;9.60;99.90;;;;;;4118912;28;20046;-80
2023/12/21 03:32:48;;;;;;;13.88;2.30;;;9.70;99.90;;;;;;4129184;28;20038;-80
2023/12/21 03:34:49;;;;;;;14.68;2.85;;;9.10;99.90;;;;;;4125838;28;20039;-80
2023/12/21 03:36:50;;;;;;;16.40;2.10;;;9.90;99.90;;;;;;4118401;28;20050;-80
2023/12/21 03:38:51;;;;;;;6.47;1.83;;;10.10;99.90;;;;;;4119025;28;20054;-80
2023/12/21 03:40:52;;;;;;;12.27;1.95;;;9.30;99.90;;;;;;4118005;28;20075;-80
2023/12/21 03:42:53;;;;;;;10.70;2.25;;;10.00;99.90;;;;;;4118717;28;20038;-80
2023/12/21 03:44:55;;;;;;;7.53;2.28;;;;;;;;;;4124878;28;20038;-80
2023/12/21 03:46:57;;;;;;;7.78;2.60;;;;;;;;;;4126083;28;20054;-80
2023/12/21 03:48:58;;;;;;;12.07;2.05;;;;;;;;;;4118427;28;20135;-80
2023/12/21 03:50:59;;;;;;;20.50;2.97;;;;;;;;;;4117742;28;20183;-80
2023/12/21 03:53:01;;;;;;;19.63;2.88;;;10.00;99.90;;;;;;4118434;28;20050;-80
2023/12/21 03:55:01;;;;;;;13.30;2.83;;;10.30;99.90;;;;;;4118487;28;20082;-80
2023/12/21 03:57:03;;;;;;;11.88;2.35;;;9.50;99.90;;;;;;4118753;28;20043;-80
2023/12/21 03:59:04;;;;;;;19.00;2.22;;;9.50;99.90;;;;;;4126192;28;20050;-80
2023/12/21 04:01:05;;;;;;;11.85;2.22;;;9.90;99.90;;;;;;4118509;28;20057;-80
2023/12/21 04:03:06;;;;;;;7.63;1.95;;;9.70;99.90;;;;;;4118914;28;20053;-80
2023/12/21 04:05:07;;;;;;;14.82;2.13;;;9.10;99.90;;;;;;4118391;28;20066;-81
2023/12/21 04:07:08;;;;;;;14.18;2.45;;;9.10;99.90;;;;;;4118634;28;20058;-81
2023/12/21 04:09:09;;;;;;;9.68;2.53;;;8.90;99.90;;;;;;4117950;28;20102;-81
2023/12/21 04:11:10;;;;;;;8.80;1.88;;;9.30;99.90;;;;;;4118220;28;20051;-81
2023/12/21 04:13:10;;;;;;;10.63;2.85;;;10.20;99.90;;;;;;4118605;28;20500;-80
2023/12/21 04:15:11;;;;;;;8.23;2.00;;;9.20;99.90;;;;;;4118255;28;20147;-80
2023/12/21 04:17:12;;;;;;;6.45;2.05;;;9.10;99.90;;;;;;4117864;28;20054;-80
2023/12/21 04:19:13;;;;;;;8.43;1.60;;;8.80;99.90;;;;;;4118342;28;20645;-80
2023/12/21 04:21:14;;;;;;;12.65;2.47;;;9.10;99.90;;;;;;4118542;28;20046;-80
2023/12/21 04:23:14;;;;;;;10.38;1.50;;;9.10;99.90;;;;;;4117975;28;20109;-80
2023/12/21 04:25:16;;;;;;;11.20;2.22;;;9.70;99.90;;;;;;4117613;28;20047;-80
2023/12/21 04:27:16;;;;;;;10.30;2.13;;;9.10;99.90;;;;;;4117675;28;20050;-80
2023/12/21 04:29:17;;;;;;;10.77;2.35;;;9.60;99.90;;;;;;4118082;28;20054;-81
2023/12/21 04:31:19;;;;;;;11.20;2.33;;;9.20;99.90;;;;;;4117283;28;20043;-80
2023/12/21 04:33:20;;;;;;;5.00;1.73;;;9.50;99.90;;;;;;4117605;28;20051;-80
2023/12/21 04:35:20;;;;;;;13.55;2.10;;;9.10;99.90;;;;;;4117842;28;20101;-80
2023/12/21 04:37:22;;;;;;;11.85;2.05;;;9.10;99.90;;;;;;4118093;28;20100;-80
2023/12/21 04:39:22;;;;;;;16.50;2.20;;;9.40;99.90;;;;;;4116903;28;20046;-80
2023/12/21 04:41:23;;;;;;;15.20;2.20;;;9.10;99.90;;;;;;4117225;28;20129;-80
2023/12/21 04:43:25;;;;;;;13.75;2.58;;;9.90;99.90;;;;;;4116906;28;20071;-80
2023/12/21 04:45:25;;;;;;;11.23;2.28;;;9.10;99.90;;;;;;4116852;28;20042;-80
2023/12/21 04:47:27;;;;;;;16.50;2.50;;;9.10;99.90;;;;;;4116916;28;20444;-80
2023/12/21 04:49:27;;;;;;;14.98;2.05;;;9.10;99.90;;;;;;4116956;28;20397;-80
2023/12/21 04:51:29;;;;;;;8.35;2.33;;;9.10;99.90;;;;;;4116415;28;20061;-80
2023/12/21 04:53:29;;;;;;;8.00;1.95;;;9.10;99.90;;;;;;4129944;28;20406;-80
2023/12/21 04:55:31;;;;;;;14.25;2.72;;;9.10;99.90;;;;;;4140712;28;20086;-80
2023/12/21 04:57:32;;;;;;;10.52;2.40;;;9.20;99.90;;;;;;4107460;28;20069;-80
2023/12/21 04:59:32;;;;;;;7.32;1.80;;;9.30;99.90;;;;;;4117439;28;20078;-80
2023/12/21 05:01:33;;;;;;;8.82;1.52;;;9.50;99.90;;;;;;4117093;28;20046;-80
2023/12/21 05:03:34;;;;;;;7.82;1.48;;;9.10;99.90;;;;;;4116014;28;20043;-80
2023/12/21 05:05:35;;;;;;;7.32;1.95;;;10.00;99.90;;;;;;4115728;28;20054;-80
2023/12/21 05:07:37;;;;;;;7.63;1.65;;;9.70;99.90;;;;;;4116648;28;20050;-80
2023/12/21 05:09:38;;;;;;;14.05;1.80;;;9.00;99.90;;;;;;4116650;28;20047;-80
2023/12/21 05:11:39;;;;;;;10.52;2.10;;;9.80;99.90;;;;;;4116569;28;20046;-80
2023/12/21 05:13:40;;;;;;;6.07;1.25;;;9.50;99.90;;;;;;4116665;28;20098;-80
2023/12/21 05:15:41;;;;;;;10.88;2.13;;;9.30;99.90;;;;;;4131808;28;20050;-80
2023/12/21 05:17:42;;;;;;;6.85;1.98;;;9.10;99.90;;;;;;4120480;28;20399;-80
2023/12/21 05:19:44;;;;;;;9.43;2.15;;;9.10;99.90;;;;;;4114847;28;20174;-80
2023/12/21 05:21:45;;;;;;;8.38;2.08;;;9.50;99.90;;;;;;4116579;28;20502;-80
2023/12/21 05:23:46;;;;;;;11.27;1.70;;;9.80;99.90;;;;;;4115727;28;20043;-80
2023/12/21 05:25:47;;;;;;;6.40;1.98;;;9.10;99.90;;;;;;4116366;28;20043;-80
2023/12/21 05:27:48;;;;;;;14.63;2.90;;;9.10;99.90;;;;;;4115905;28;20047;-80
2023/12/21 05:29:49;;;;;;;7.90;2.10;;;9.30;99.90;;;;;;4116510;28;20053;-79
2023/12/21 05:31:50;;;;;;;10.75;2.10;;;9.20;99.90;;;;;;4114777;28;20133;-80
2023/12/21 05:33:51;;;;;;;8.10;1.75;;;9.90;99.90;;;;;;4124564;28;20026;-79
2023/12/21 05:35:52;;;;;;;13.80;3.13;;;9.40;99.90;;;;;;4129516;28;20469;-80
2023/12/21 05:37:53;;;;;;;11.27;1.70;;;9.10;99.90;;;;;;4117792;28;20471;-80
2023/12/21 05:39:54;;;;;;;9.32;2.20;;;;;;;;;;4129074;28;20050;-80
2023/12/21 05:41:55;;;;;;;14.95;2.13;;;;;;;;;;4116619;28;20516;-80
2023/12/21 05:43:56;;;;;;;16.23;2.08;;;;;;;;;;4116737;28;20106;-80
2023/12/21 05:45:57;;;;;;;14.48;2.75;;;;;;;;;;4116734;28;20547;-80
2023/12/21 05:47:58;;;;;;;17.95;3.22;;;;;;;;;;4116464;28;20050;-79
2023/12/21 05:49:59;;;;;;;15.52;3.67;;;;;;;;;;4116211;28;20057;-80
2023/12/21 05:52:00;;;;;;;12.80;1.90;;;;;;;;;;4116161;28;20050;-80
2023/12/21 05:54:02;;;;;;;7.53;1.90;;;;;;;;;;4115999;28;20058;-80
2023/12/21 05:56:04;;;;;;;10.55;2.35;;;;;;;;;;4114739;28;20411;-80
2023/12/21 05:58:05;;;;;;;15.88;2.13;;;;;;;;;;4115709;28;20057;-80
2023/12/21 06:00:06;;;;;;;12.32;1.80;;;;;;;;;;4116884;28;20047;-80
2023/12/21 06:02:08;;;;;;;13.70;2.03;;;;;;;;;;4116090;28;20149;-80
2023/12/21 06:04:09;;;;;;;12.60;2.85;;;;;;;;;;4115967;28;20054;-80
2023/12/21 06:06:11;;;;;;;10.75;1.60;;;;;;;;;;4116143;28;20043;-80
2023/12/21 06:08:12;;;;;;;11.30;1.40;;;;;;;;;;4124002;28;20057;-80
2023/12/21 06:10:13;;;;;;;9.15;1.95;;;;;;;;;;4147255;28;20042;-80
2023/12/21 06:12:14;;;;;;;8.02;1.48;;;;;;;;;;4132208;28;20042;-80
2023/12/21 06:14:15;;;;;;;12.98;2.13;;;;;;;;;;4134636;28;20054;-80
2023/12/21 06:16:16;;;;;;;11.93;1.85;;;;;;;;;;4151553;28;20114;-79
2023/12/21 06:18:17;;;;;;;13.18;2.58;;;;;;;;;;4117915;28;20054;-80
2023/12/21 06:20:18;;;;;;;10.25;1.70;;;9.70;99.90;;;;;;4120135;28;20415;-80
2023/12/21 06:22:18;;;;;;;11.38;2.30;;;9.30;99.90;;;;;;4129322;28;20050;-80
2023/12/21 06:24:20;;;;;;;9.00;1.80;;;9.90;99.90;;;;;;4129996;28;20093;-80
2023/12/21 06:26:21;;;;;;;11.73;1.63;;;9.20;99.90;;;;;;4125520;28;20520;-80
2023/12/21 06:28:22;;;;;;;11.85;1.75;;;10.60;99.90;;;;;;4125553;28;20047;-80
2023/12/21 06:30:23;;;;;;;3.97;1.73;;;10.60;99.90;;;;;;4125381;28;20069;-80
2023/12/21 06:32:24;;;;;;;14.40;2.05;;;9.50;99.90;;;;;;4124244;28;20038;-80
2023/12/21 06:34:25;;;;;;;6.45;2.22;;;10.10;99.90;;;;;;4124608;28;20073;-80
2023/12/21 06:36:26;;;;;;;12.73;1.35;;;9.50;99.90;;;;;;4123969;28;20046;-80
2023/12/21 06:38:27;;;;;;;8.55;2.10;;;9.20;99.90;;;;;;4120624;28;20516;-80
2023/12/21 06:40:27;;;;;;;3.33;1.38;;;9.70;99.90;;;;;;4118576;28;20516;-80
2023/12/21 06:42:28;;;;;;;8.82;1.30;;;9.80;99.90;;;;;;4118982;28;20483;-80
2023/12/21 06:44:29;;;;;;;7.88;1.33;;;9.20;99.90;;;;;;4118996;28;20126;-81
2023/12/21 06:46:29;;;;;;;6.18;1.58;;;10.30;99.90;;;;;;4119862;28;20539;-80
2023/12/21 06:48:30;;;;;;;7.43;1.80;;;10.30;99.90;;;;;;4120087;28;20055;-81
2023/12/21 06:50:31;;;;;;;8.80;1.75;;;9.90;99.90;;;;;;4118564;28;20051;-80
2023/12/21 06:52:32;;;;;;;6.38;1.38;;;9.70;99.90;;;;;;4121755;28;20097;-80
2023/12/21 06:54:34;;;;;;;8.98;2.05;;;9.40;99.90;;;;;;4121725;28;20166;-80
2023/12/21 06:56:34;;;;;;;8.23;1.67;;;9.20;99.90;;;;;;4117209;28;20046;-80
2023/12/21 06:58:35;;;;;;;5.68;1.40;;;9.20;99.90;;;;;;4118412;28;20074;-80
2023/12/21 07:00:36;;;;;;;6.05;1.25;;;9.50;99.90;;;;;;4117187;28;20053;-80
2023/12/21 07:02:37;;;;;;;5.07;1.23;;;9.60;99.90;;;;;;4117748;28;20094;-80
2023/12/21 07:04:38;;;;;;;6.05;1.40;;;9.70;99.90;;;;;;4118348;28;20488;-80
2023/12/21 07:06:39;;;;;;;3.40;1.00;;;9.60;99.90;;;;;;4117802;28;20045;-80
2023/12/21 07:08:39;;;;;;;5.85;1.05;;;9.30;99.90;;;;;;4118226;28;20050;-80
2023/12/21 07:10:40;;;;;;;3.85;0.98;;;9.20;99.90;;;;;;4117901;28;20047;-80
2023/12/21 07:12:40;;;;;;;4.80;1.08;;;9.20;99.90;;;;;;4117802;28;20042;-80
2023/12/21 07:14:41;;;;;;;5.18;1.13;;;9.20;99.90;;;;;;4117200;28;20042;-80
2023/12/21 07:16:42;;;;;;;2.92;0.90;;;9.20;99.90;;;;;;4119709;28;20058;-80
2023/12/21 07:18:42;;;;;;;2.20;0.70;;;9.60;99.90;;;;;;4134334;28;20042;-80
2023/12/21 07:20:43;;;;;;;2.28;0.70;;;9.20;99.90;;;;;;4134252;28;20064;-79
2023/12/21 07:22:44;;;;;;;4.82;0.93;;;9.90;99.90;;;;;;4134397;28;20049;-80
2023/12/21 07:24:44;;;;;;;2.40;0.70;;;9.90;99.90;;;;;;4117026;28;20522;-80
2023/12/21 07:26:45;;;;;;;4.18;0.60;;;9.20;99.90;;;;;;4117438;28;20039;-80
2023/12/21 07:28:46;;;;;;;6.13;0.82;;;9.40;99.90;;;;;;4118333;28;20097;-80
2023/12/21 07:30:47;;;;;;;1.88;0.75;;;9.20;99.90;;;;;;4117939;28;20082;-80
2023/12/21 07:32:48;;;;;;;4.97;0.73;;;9.40;99.90;;;;;;4118061;28;20089;-80
2023/12/21 07:34:49;;;;;;;6.10;0.60;;;9.50;99.90;;;;;;4117961;28;20043;-80
2023/12/21 07:36:50;;;;;;;2.28;0.57;;;9.50;99.90;;;;;;4117923;28;20167;-80
2023/12/21 07:38:51;;;;;;;3.05;0.90;;;9.40;99.90;;;;;;4118554;28;20122;-79
2023/12/21 07:40:51;;;;;;;4.05;0.77;;;10.20;99.90;;;;;;4130801;28;20507;-79
2023/12/21 07:42:52;;;;;;;4.07;1.17;;;9.20;99.90;;;;;;4115648;28;20039;-79
2023/12/21 07:44:53;;;;;;;5.93;0.95;;;9.00;99.90;;;;;;4117074;28;20042;-79
2023/12/21 07:46:54;;;;;;;3.47;0.70;;;9.80;99.90;;;;;;4116970;28;20916;-79
2023/12/21 07:48:56;;;;;;;5.18;0.82;;;9.70;99.90;;;;;;4118098;28;20817;-78
2023/12/21 07:50:56;;;;;;;5.38;0.90;;;9.20;99.90;;;;;;4116552;28;20039;-78
2023/12/21 07:52:57;;;;;;;4.75;0.80;;;9.20;99.90;;;;;;4117666;28;20100;-78
2023/12/21 07:54:58;;;;;;;3.67;0.90;;;9.20;99.90;;;;;;4117591;28;20066;-79
2023/12/21 07:56:58;;;;;;;5.22;1.08;;;9.70;99.90;;;;;;4116642;28;20042;-79
2023/12/21 07:59:04;;;;;;;5.13;2.13;;;9.30;99.90;;;;;;4116429;28;20059;-79
2023/12/21 08:01:05;;;;;;;10.43;1.55;;;9.40;99.90;;;;;;4117568;28;20074;-78
2023/12/21 08:03:05;;;;;;;9.82;1.20;;;9.30;99.90;;;;;;4117406;28;20042;-78
2023/12/21 08:05:06;;;;;;;4.32;1.10;;;9.80;99.90;;;;;;4117245;28;20495;-78
2023/12/21 08:07:08;;;;;;;9.30;1.55;;;9.30;99.90;;;;;;4117555;28;20043;-78
2023/12/21 08:09:09;;;;;;;5.32;1.23;;;9.50;99.90;;;;;;4117359;28;20047;-78
2023/12/21 08:11:09;;;;;;;7.63;1.55;;;9.30;99.90;;;;;;4117038;28;20106;-78
2023/12/21 08:13:11;;;;;;;11.90;1.60;;;9.30;99.90;;;;;;4117472;28;20126;-78
2023/12/21 08:15:11;;;;;;;10.85;2.58;;;9.30;99.90;;;;;;4116030;28;20093;-78
2023/12/21 08:17:13;;;;;;;5.32;0.98;;;9.30;99.90;;;;;;4116800;28;20063;-79
2023/12/21 08:19:15;;;;;;;6.35;1.25;;;9.30;99.90;;;;;;4117327;28;20047;-78
2023/12/21 08:21:16;;;;;;;3.88;1.50;;;9.40;99.90;;;;;;4116517;28;20105;-79
2023/12/21 08:23:17;;;;;;;14.65;2.22;;;9.70;99.90;;;;;;4117162;28;20067;-78
2023/12/21 08:25:18;;;;;;;8.60;1.52;;;9.30;99.90;;;;;;4116986;28;20038;-78
2023/12/21 08:27:20;;;;;;;7.93;1.45;;;9.40;99.90;;;;;;4116892;28;20039;-78
2023/12/21 08:29:20;;;;;;;17.95;1.83;;;10.40;99.90;;;;;;4116500;28;20428;-79
2023/12/21 08:31:25;;;;;;;6.72;1.75;;;9.40;99.90;;;;;;4115738;28;20051;-79
2023/12/21 08:33:26;;;;;;;13.77;2.08;;;9.40;99.90;;;;;;4116937;28;20086;-78
2023/12/21 08:35:26;;;;;;;9.73;2.38;;;9.00;99.90;;;;;;4117142;28;20070;-78
2023/12/21 08:37:27;;;;;;;19.45;3.05;;;10.00;99.90;;;;;;4117088;28;20078;-78
2023/12/21 08:39:28;;;;;;;18.33;2.22;;;9.40;99.90;;;;;;4116049;28;20114;-78
2023/12/21 08:41:28;;;;;;;12.15;1.75;;;9.50;99.90;;;;;;4115797;28;20480;-79
2023/12/21 08:43:32;;;;;;;20.48;2.20;;;9.00;99.90;;;;;;4116316;28;20054;-79
2023/12/21 08:45:32;;;;;;;10.32;2.63;;;10.70;99.90;;;;;;4116718;28;20173;-78
2023/12/21 08:47:40;;;;;;;11.43;2.10;;;9.80;99.90;;;;;;4116729;28;20512;-78
2023/12/21 08:49:41;;;;;;;12.27;1.63;;;9.30;99.90;;;;;;4116735;28;20114;-78
2023/12/21 08:51:42;;;;;;;12.05;2.17;;;9.60;99.90;;;;;;4116436;28;20039;-78
2023/12/21 08:53:47;;;;;;;11.15;2.38;;;10.20;99.90;;;;;;4116769;28;20039;-78
2023/12/21 08:55:47;;;;;;;15.75;2.25;;;10.00;99.90;;;;;;4116707;28;20051;-79
2023/12/21 08:57:49;;;;;;;8.70;1.85;;;9.70;99.90;;;;;;4116088;28;20113;-78
2023/12/21 08:59:56;;;;;;;8.38;1.67;;;10.10;99.90;;;;;;4254283;27;1261930;-77
2023/12/21 09:01:57;;;;;;;15.60;2.28;;;9.80;99.90;;;;;;4271199;27;20043;-80
2023/12/21 09:03:58;;;;;;;18.30;3.28;;;10.00;99.90;;;;;;4227329;28;20409;-80
2023/12/21 09:05:58;;;;;;;8.65;2.10;;;10.30;99.90;;;;;;4244769;28;20066;-81
2023/12/21 09:07:59;;;;;;;15.15;2.15;;;10.00;99.90;;;;;;4244645;28;20050;-81
2023/12/21 09:10:00;;;;;;;7.47;1.45;;;9.90;99.90;;;;;;4228233;28;20476;-81
2023/12/21 09:12:01;;;;;;;10.52;1.98;;;9.90;99.90;;;;;;4244436;28;20050;-80
2023/12/21 09:14:02;;;;;;;10.77;1.50;;;9.90;99.90;;;;;;4249404;27;20408;-81
2023/12/21 09:16:03;;;;;;;12.68;1.58;;;10.10;99.90;;;;;;4255746;27;20791;-81
2023/12/21 09:18:08;;;;;;;10.75;1.58;;;9.90;99.90;;;;;;4263247;27;20530;-81
2023/12/21 09:20:09;;;;;;;8.45;2.42;;;10.50;99.90;;;;;;4248182;27;20039;-81
2023/12/21 09:22:10;;;;;;;13.98;1.90;;;9.90;99.90;;;;;;4239579;28;20040;-81
2023/12/21 09:24:11;;;;;;;12.77;2.38;;;9.90;99.90;;;;;;4253238;27;20120;-80
2023/12/21 09:26:11;;;;;;;12.00;1.70;;;9.90;99.90;;;;;;4249985;27;20047;-82
2023/12/21 09:28:13;;;;;;;13.20;1.65;;;9.90;99.90;;;;;;4233465;28;20123;-82
2023/12/21 09:30:14;;;;;;;11.68;1.98;;;10.10;99.90;;;;;;4237436;28;20221;-81
2023/12/21 09:32:14;;;;;;;26.50;2.70;;;9.80;99.90;;;;;;4258299;27;20142;-81
2023/12/21 09:34:17;;;;;;;12.85;1.98;;;;;;;;;;4230773;28;20048;-81
2023/12/21 09:36:19;;;;;;;15.57;1.88;;;9.90;99.90;;;;;;4257994;27;20047;-81
2023/12/21 09:38:20;;;;;;;16.30;1.90;;;10.40;99.90;;;;;;4239462;28;20073;-80
2023/12/21 09:40:24;;;;;;;14.55;2.75;;;10.00;99.90;;;;;;4240088;28;20084;-81
2023/12/21 09:42:27;;;;;;;10.10;1.88;;;10.60;99.90;;;;;;4239026;28;20070;-82
2023/12/21 09:44:29;;;;;;;22.45;3.05;;;10.10;99.90;;;;;;4243925;28;20404;-81
2023/12/21 09:46:38;;;;;;;16.35;3.35;;;10.40;99.90;;;;;;4262502;27;20483;-82
2023/12/21 09:48:42;;;;;;;14.82;2.70;;;10.10;99.90;;;;;;4256380;27;20031;-82
2023/12/21 09:50:45;;;;;;;11.85;1.92;;;10.20;99.90;;;;;;4246464;27;20495;-82
2023/12/21 09:52:47;;;;;;;13.48;2.67;;;10.30;99.90;;;;;;4246802;28;20047;-82
2023/12/21 09:54:52;;;;;;;17.90;2.42;;;10.90;99.90;;;;;;4227806;28;20109;-81
2023/12/21 09:56:54;;;;;;;11.75;2.03;;;11.50;99.90;;;;;;4246746;28;20039;-82
2023/12/21 09:58:56;;;;;;;9.55;1.75;;;10.10;99.90;;;;;;4246431;28;20070;-81
2023/12/21 10:00:57;;;;;;;11.80;1.85;;;10.40;99.90;;;;;;4246937;28;20054;-80
2023/12/21 10:02:58;;;;;;;12.27;1.40;;;10.30;99.90;;;;;;4227290;28;20531;-81
2023/12/21 10:05:01;;;;;;;11.95;2.28;;;10.20;99.90;;;;;;4258307;27;20055;-81
2023/12/21 10:07:02;;;;;;;15.27;1.75;;;10.10;99.90;;;;;;4244974;27;20118;-81
2023/12/21 10:09:04;;;;;;;17.85;2.40;;;10.20;99.90;;;;;;4263375;27;20035;-81
2023/12/21 10:11:08;;;;;;;15.07;1.50;;;10.20;99.90;;;;;;4253073;27;20066;-81
2023/12/21 10:13:08;;;;;;;11.60;1.83;;;10.20;99.90;;;;;;4251714;27;20035;-81
2023/12/21 10:15:10;;;;;;;21.50;2.80;;;10.30;99.90;;;;;;4247309;27;20033;-81
2023/12/21 10:17:12;;;;;;;22.23;2.00;;;10.30;99.90;;;;;;4242707;27;20134;-81
2023/12/21 10:19:13;;;;;;;18.08;2.40;;;10.10;99.90;;;;;;4223535;28;20047;-80
2023/12/21 10:21:15;;;;;;;14.38;2.25;;;10.60;99.90;;;;;;4243223;27;20398;-81
2023/12/21 10:23:16;;;;;;;12.82;2.47;;;10.30;99.90;;;;;;4238682;27;20047;-81
2023/12/21 10:25:18;;;;;;;13.20;1.63;;;10.30;99.90;;;;;;4240622;27;20043;-80
2023/12/21 10:27:21;;;;;;;14.40;1.80;;;10.40;99.90;;;;;;4242950;27;20095;-81
2023/12/21 10:29:21;;;;;;;11.23;1.42;;;10.50;99.90;;;;;;4237936;27;20048;-81
2023/12/21 10:31:22;;;;;;;13.10;2.70;;;10.40;99.90;;;;;;4227187;28;20047;-81
2023/12/21 10:33:25;;;;;;;27.80;2.83;;;10.60;99.90;;;;;;4226127;28;20051;-82
2023/12/21 10:35:26;;;;;;;16.15;3.03;;;10.60;99.90;;;;;;4238971;27;20039;-81
2023/12/21 10:37:27;;;;;;;17.48;2.30;;;10.60;99.90;;;;;;4239388;27;20096;-80
2023/12/21 10:39:30;;;;;;;22.63;1.88;;;10.60;99.90;;;;;;4242519;27;20043;-80
2023/12/21 10:41:30;;;;;;;13.63;1.95;;;10.50;99.90;;;;;;4245769;27;20110;-80
2023/12/21 10:43:34;;;;;;;13.43;3.72;;;10.50;99.90;;;;;;4246130;27;20050;-81
2023/12/21 10:45:35;;;;;;;11.63;1.50;;;10.80;99.90;;;;;;4248997;27;20050;-81
2023/12/21 10:47:37;;;;;;;14.57;1.98;;;10.50;99.90;;;;;;4242583;27;20044;-79
2023/12/21 10:49:40;;;;;;;14.98;1.85;;;10.50;99.90;;;;;;4244470;27;20055;-81
2023/12/21 10:51:43;;;;;;;15.65;2.13;;;10.70;99.90;;;;;;4245026;27;20043;-80
2023/12/21 10:53:44;;;;;;;14.98;1.85;;;10.60;99.90;;;;;;4248743;27;20540;-82
2023/12/21 10:55:51;;;;;;;10.45;1.60;;;10.60;99.90;;;;;;4241991;27;20074;-82
2023/12/21 10:57:53;;;;;;;11.15;2.13;;;10.60;99.90;;;;;;4235351;27;20062;-81
2023/12/21 10:59:54;;;;;;;16.00;2.40;;;10.60;99.90;;;;;;4246088;27;20059;-81
2023/12/21 11:01:55;;;;;;;14.50;1.85;;;11.30;99.90;;;;;;4245792;27;20030;-81